Time;durP1;ratioP1;P1;durP2;ratioP2;P2;SDS_P1;SDS_P2;PMS_P1;PMS_P2;Temp;Humidity;BMP_temperature;BMP_pressure;BME280_temperature;BME280_humidity;BME280_pressure;Samples;Min_cycle;Max_cycle;Signal;HPM_P1;HPM_P2
2021/09/25 00:01:35;;;;;;;6.97;2.78;;;;;;;;;;4958163;28;20405;-55
2021/09/25 00:04:02;;;;;;;6.80;3.00;;;;;;;;;;4963178;28;20034;-55
2021/09/25 00:06:28;;;;;;;5.95;3.22;;;;;;;;;;4959289;28;20480;-55
2021/09/25 00:08:54;;;;;;;5.30;3.03;;;;;;;;;;4959587;28;20114;-55
2021/09/25 00:11:19;;;;;;;5.97;3.75;;;;;;;;;;4958140;28;20374;-55
2021/09/25 00:13:44;;;;;;;7.07;3.22;;;;;;;;;;4958745;28;20479;-55
2021/09/25 00:16:11;;;;;;;5.93;3.10;;;;;;;;;;4954639;28;20264;-56
2021/09/25 00:18:36;;;;;;;6.38;3.20;;;;;;;;;;4963824;28;20022;-54
2021/09/25 00:21:02;;;;;;;6.43;3.50;;;;;;;;;;4954102;28;20516;-55
2021/09/25 00:23:27;;;;;;;7.70;3.42;;;;;;;;;;4956449;28;20043;-56
2021/09/25 00:25:53;;;;;;;5.13;2.95;;;;;;;;;;4958063;28;20492;-56
2021/09/25 00:28:18;;;;;;;9.20;3.35;;;;;;;;;;4961728;28;20118;-55
2021/09/25 00:30:43;;;;;;;4.65;2.80;;;;;;;;;;4962263;28;20045;-56
2021/09/25 00:33:08;;;;;;;5.75;3.28;;;;;;;;;;4960187;28;20026;-56
2021/09/25 00:35:34;;;;;;;4.70;3.03;;;;;;;;;;4955402;28;20126;-55
2021/09/25 00:37:59;;;;;;;6.70;3.35;;;;;;;;;;4957499;28;20082;-56
2021/09/25 00:40:24;;;;;;;8.60;3.60;;;;;;;;;;4969753;28;20043;-56
2021/09/25 00:42:50;;;;;;;7.00;3.38;;;;;;;;;;4959395;28;20090;-55
2021/09/25 00:45:18;;;;;;;5.55;3.05;;;;;;;;;;4953444;28;20731;-56
2021/09/25 00:47:43;;;;;;;5.40;3.33;;;;;;;;;;4961858;28;20105;-56
2021/09/25 00:50:09;;;;;;;4.80;3.10;;;;;;;;;;4952594;28;20493;-55
2021/09/25 00:52:34;;;;;;;5.93;3.13;;;;;;;;;;4965832;28;20027;-56
2021/09/25 00:55:00;;;;;;;5.55;3.33;;;;;;;;;;4961326;28;20019;-56
2021/09/25 00:57:25;;;;;;;5.93;3.40;;;;;;;;;;4959915;28;20138;-56
2021/09/25 00:59:51;;;;;;;7.60;3.63;;;;;;;;;;4969958;28;20129;-56
2021/09/25 01:02:17;;;;;;;5.93;3.80;;;;;;;;;;4957560;28;20044;-56
2021/09/25 01:04:43;;;;;;;6.65;3.70;;;;;;;;;;4961064;28;20026;-56
2021/09/25 01:07:09;;;;;;;5.93;3.80;;;;;;;;;;4958493;28;20031;-56
2021/09/25 01:09:34;;;;;;;6.00;3.67;;;;;;;;;;4962543;28;20038;-56
2021/09/25 01:11:59;;;;;;;9.65;3.97;;;;;;;;;;4963909;28;20065;-56
2021/09/25 01:14:24;;;;;;;7.25;4.13;;;;;;;;;;4957270;28;20102;-55
2021/09/25 01:16:50;;;;;;;7.88;4.00;;;;;;;;;;4969519;28;20157;-55
2021/09/25 01:19:15;;;;;;;6.13;3.78;;;;;;;;;;4956624;28;20022;-56
2021/09/25 01:21:40;;;;;;;5.78;3.65;;;;;;;;;;4961349;28;20042;-55
2021/09/25 01:24:05;;;;;;;6.53;4.38;;;;;;;;;;4957449;28;20047;-55
2021/09/25 01:26:30;;;;;;;6.15;4.30;;;;;;;;;;4960479;28;20058;-57
2021/09/25 01:28:56;;;;;;;9.80;4.30;;;;;;;;;;4961605;28;20049;-56
2021/09/25 01:31:21;;;;;;;7.68;4.25;;;;;;;;;;4958940;28;20141;-56
2021/09/25 01:33:47;;;;;;;5.35;3.90;;;;;;;;;;4963013;28;20023;-55
2021/09/25 01:36:12;;;;;;;6.72;3.90;;;;;;;;;;4956917;28;20042;-56
2021/09/25 01:38:38;;;;;;;6.53;3.72;;;;;;;;;;4960165;28;20039;-56
2021/09/25 01:41:03;;;;;;;7.00;4.40;;;;;;;;;;4964327;28;20113;-55
2021/09/25 01:43:29;;;;;;;7.80;4.20;;;;;;;;;;4960566;28;20023;-56
2021/09/25 01:45:54;;;;;;;7.57;4.75;;;;;;;;;;4974758;28;20040;-56
2021/09/25 01:48:20;;;;;;;6.90;4.55;;;;;;;;;;4965581;28;20023;-56
2021/09/25 01:50:46;;;;;;;7.93;4.68;;;;;;;;;;4959800;28;20046;-56
2021/09/25 01:53:11;;;;;;;7.38;4.53;;;;;;;;;;4969013;28;20088;-55
2021/09/25 01:55:37;;;;;;;7.63;4.72;;;;;;;;;;4966867;28;20035;-54
2021/09/25 01:58:02;;;;;;;8.80;4.78;;;;;;;;;;4952229;28;20396;-56
2021/09/25 02:00:27;;;;;;;8.50;5.10;;;;;;;;;;4958760;28;20039;-56
2021/09/25 02:02:53;;;;;;;7.68;4.63;;;;;;;;;;4959106;28;20082;-56
2021/09/25 02:05:18;;;;;;;8.15;4.57;;;;;;;;;;4967730;28;20032;-55
2021/09/25 02:07:44;;;;;;;7.82;5.10;;;;;;;;;;4962618;28;20027;-55
2021/09/25 02:10:10;;;;;;;7.65;4.88;;;;;;;;;;4955039;28;20027;-56
2021/09/25 02:12:35;;;;;;;9.77;4.47;;;;;;;;;;4961588;28;20029;-56
2021/09/25 02:15:00;;;;;;;9.73;4.65;;;;;;;;;;4963791;28;20027;-56
2021/09/25 02:17:25;;;;;;;10.52;4.40;;;;;;;;;;4966427;28;20050;-55
2021/09/25 02:19:51;;;;;;;6.82;4.20;;;;;;;;;;4966722;28;20101;-56
2021/09/25 02:22:16;;;;;;;7.15;4.43;;;;;;;;;;4956372;28;20073;-56
2021/09/25 02:24:41;;;;;;;6.57;4.43;;;;;;;;;;4966196;28;20046;-56
2021/09/25 02:27:07;;;;;;;6.75;4.50;;;;;;;;;;4957024;28;20476;-55
2021/09/25 02:29:32;;;;;;;9.88;5.85;;;;;;;;;;4955054;28;20023;-54
2021/09/25 02:31:57;;;;;;;8.77;4.55;;;;;;;;;;4960341;28;20076;-55
2021/09/25 02:34:22;;;;;;;9.98;5.13;;;;;;;;;;4955244;28;20074;-56
2021/09/25 02:36:48;;;;;;;12.70;5.10;;;;;;;;;;4958304;28;20039;-56
2021/09/25 02:39:13;;;;;;;7.55;5.05;;;;;;;;;;4954964;28;20030;-55
2021/09/25 02:41:38;;;;;;;9.20;4.65;;;;;;;;;;4956417;28;20081;-56
2021/09/25 02:44:03;;;;;;;7.25;5.22;;;;;;;;;;4959546;28;20019;-56
2021/09/25 02:46:29;;;;;;;8.32;5.13;;;;;;;;;;4953100;28;20030;-54
2021/09/25 02:48:54;;;;;;;7.57;5.13;;;;;;;;;;4967271;28;20023;-55
2021/09/25 02:51:19;;;;;;;7.15;4.85;;;;;;;;;;4950551;28;20641;-55
2021/09/25 02:53:44;;;;;;;8.43;5.30;;;;;;;;;;4963404;28;20553;-55
2021/09/25 02:56:10;;;;;;;11.27;5.65;;;;;;;;;;4964718;28;20528;-55
2021/09/25 02:58:35;;;;;;;12.38;5.93;;;;;;;;;;4960594;28;20028;-55
2021/09/25 03:01:00;;;;;;;10.02;6.22;;;;;;;;;;4962854;28;20030;-56
2021/09/25 03:03:25;;;;;;;11.95;6.47;;;;;;;;;;4952773;28;20426;-56
2021/09/25 03:05:51;;;;;;;12.40;6.90;;;;;;;;;;4965283;28;20042;-55
2021/09/25 03:08:16;;;;;;;8.80;5.43;;;;;;;;;;4960528;28;20049;-56
2021/09/25 03:10:41;;;;;;;8.35;5.43;;;;;;;;;;4957380;28;20400;-56
2021/09/25 03:13:06;;;;;;;16.20;6.90;;;;;;;;;;4953666;28;20359;-55
2021/09/25 03:15:32;;;;;;;11.38;6.78;;;;;;;;;;4967443;28;20066;-56
2021/09/25 03:17:57;;;;;;;12.52;7.25;;;;;;;;;;4955985;28;20039;-54
2021/09/25 03:20:22;;;;;;;11.32;6.07;;;;;;;;;;4952152;28;20031;-55
2021/09/25 03:22:48;;;;;;;9.20;5.53;;;;;;;;;;4966140;28;20034;-55
2021/09/25 03:25:14;;;;;;;9.40;6.25;;;;;;;;;;4953783;28;20527;-55
2021/09/25 03:27:40;;;;;;;14.45;7.03;;;;;;;;;;4960284;28;20500;-56
2021/09/25 03:30:06;;;;;;;13.30;6.63;;;;;;;;;;4953368;28;20037;-55
2021/09/25 03:32:31;;;;;;;10.15;6.45;;;;;;;;;;4959927;28;20027;-55
2021/09/25 03:34:56;;;;;;;13.73;7.03;;;;;;;;;;4959729;28;20033;-55
2021/09/25 03:37:22;;;;;;;7.45;4.75;;;;;;;;;;4955292;28;20045;-55
2021/09/25 03:39:47;;;;;;;8.60;5.63;;;;;;;;;;4965191;28;20101;-56
2021/09/25 03:42:12;;;;;;;11.57;6.60;;;;;;;;;;4955651;28;20049;-56
2021/09/25 03:44:37;;;;;;;11.38;6.80;;;;;;;;;;4954466;28;20023;-55
2021/09/25 03:47:03;;;;;;;12.82;7.03;;;;;;;;;;4962362;28;20395;-55
2021/09/25 03:49:28;;;;;;;11.93;7.75;;;;;;;;;;4954635;28;20402;-56
2021/09/25 03:51:54;;;;;;;8.27;5.35;;;;;;;;;;4959623;28;20069;-55
2021/09/25 03:54:19;;;;;;;7.22;5.05;;;;;;;;;;4960439;28;20086;-55
2021/09/25 03:56:45;;;;;;;9.00;4.88;;;;;;;;;;4960362;28;20051;-55
2021/09/25 03:59:10;;;;;;;9.07;6.28;;;;;;;;;;4959858;28;20029;-55
2021/09/25 04:01:35;;;;;;;14.63;6.93;;;;;;;;;;4960805;28;20486;-56
2021/09/25 04:04:01;;;;;;;13.18;7.25;;;;;;;;;;4959545;28;20034;-56
2021/09/25 04:06:26;;;;;;;9.82;6.45;;;;;;;;;;4961573;28;20063;-55
2021/09/25 04:08:52;;;;;;;9.63;6.35;;;;;;;;;;4965859;28;20035;-55
2021/09/25 04:11:17;;;;;;;8.73;5.93;;;;;;;;;;4958002;28;20448;-55
2021/09/25 04:13:42;;;;;;;10.63;5.97;;;;;;;;;;4960397;28;20051;-56
2021/09/25 04:16:07;;;;;;;9.88;5.60;;;;;;;;;;4960202;28;20035;-56
2021/09/25 04:18:32;;;;;;;8.27;5.63;;;;;;;;;;4961726;28;20023;-56
2021/09/25 04:20:58;;;;;;;7.95;5.32;;;;;;;;;;4970161;28;20041;-56
2021/09/25 04:23:23;;;;;;;8.77;5.88;;;;;;;;;;4968664;28;20051;-56
2021/09/25 04:25:48;;;;;;;9.77;6.43;;;;;;;;;;4960492;28;20048;-56
2021/09/25 04:28:13;;;;;;;9.60;5.75;;;;;;;;;;4968758;28;20025;-56
2021/09/25 04:30:39;;;;;;;9.77;5.70;;;;;;;;;;4959819;28;20138;-55
2021/09/25 04:33:05;;;;;;;11.45;6.40;;;;;;;;;;4955116;28;20425;-55
2021/09/25 04:35:30;;;;;;;11.48;6.95;;;;;;;;;;4950468;28;20130;-56
2021/09/25 04:37:59;;;;;;;11.32;6.85;;;;;;;;;;4962850;28;20105;-56
2021/09/25 04:40:24;;;;;;;9.80;6.80;;;;;;;;;;4955935;28;20047;-56
2021/09/25 04:42:49;;;;;;;10.02;6.63;;;;;;;;;;4953269;28;20023;-55
2021/09/25 04:45:15;;;;;;;11.90;6.00;;;;;;;;;;4958770;28;20033;-57
2021/09/25 04:47:40;;;;;;;11.27;6.05;;;;;;;;;;4958440;28;20260;-56
2021/09/25 04:50:06;;;;;;;10.35;6.15;;;;;;;;;;4970493;28;20038;-55
2021/09/25 04:52:31;;;;;;;9.15;6.65;;;;;;;;;;4959174;28;20501;-55
2021/09/25 04:54:56;;;;;;;12.48;7.43;;;;;;;;;;4957469;28;20045;-56
2021/09/25 04:57:21;;;;;;;13.68;7.90;;;;;;;;;;4956799;28;20039;-55
2021/09/25 04:59:47;;;;;;;9.75;6.40;;;;;;;;;;4962693;28;20754;-56
2021/09/25 05:02:12;;;;;;;10.23;5.40;;;;;;;;;;4958961;28;20504;-55
2021/09/25 05:04:37;;;;;;;10.35;5.82;;;;;;;;;;4956008;28;20368;-55
2021/09/25 05:07:02;;;;;;;7.90;5.07;;;;;;;;;;4962601;28;20057;-55
2021/09/25 05:09:28;;;;;;;9.80;5.32;;;;;;;;;;4965775;28;20082;-56
2021/09/25 05:11:53;;;;;;;7.85;5.28;;;;;;;;;;4950993;28;20098;-56
2021/09/25 05:14:18;;;;;;;7.60;5.30;;;;;;;;;;4958526;28;20358;-55
2021/09/25 05:16:43;;;;;;;9.45;5.43;;;;;;;;;;4951245;28;20038;-55
2021/09/25 05:19:09;;;;;;;10.77;5.20;;;;;;;;;;4954540;28;20103;-56
2021/09/25 05:21:34;;;;;;;9.25;5.53;;;;;;;;;;4950534;28;20039;-56
2021/09/25 05:24:01;;;;;;;9.10;5.68;;;;;;;;;;4955983;28;20084;-56
2021/09/25 05:26:26;;;;;;;10.82;5.95;;;;;;;;;;4955895;28;20039;-56
2021/09/25 05:28:51;;;;;;;12.10;5.75;;;;;;;;;;4959791;28;20362;-55
2021/09/25 05:31:17;;;;;;;9.27;5.45;;;;;;;;;;4962009;28;20050;-56
2021/09/25 05:33:42;;;;;;;11.05;5.47;;;;;;;;;;4968523;28;20019;-57
2021/09/25 05:36:07;;;;;;;7.95;5.43;;;;;;;;;;4973224;28;20089;-55
2021/09/25 05:38:32;;;;;;;9.13;6.07;;;;;;;;;;4962718;28;20089;-55
2021/09/25 05:40:58;;;;;;;9.45;5.78;;;;;;;;;;4954527;28;20042;-55
2021/09/25 05:43:23;;;;;;;16.13;6.45;;;;;;;;;;4958689;28;20073;-54
2021/09/25 05:45:48;;;;;;;11.95;5.80;;;;;;;;;;4959774;28;20238;-54
2021/09/25 05:48:13;;;;;;;10.30;6.65;;;;;;;;;;4963826;28;20121;-54
2021/09/25 05:50:39;;;;;;;13.98;7.35;;;;;;;;;;4971697;28;20136;-57
2021/09/25 05:53:04;;;;;;;11.15;6.07;;;;;;;;;;4960523;28;20057;-56
2021/09/25 05:55:29;;;;;;;14.98;6.40;;;;;;;;;;4952038;28;20405;-55
2021/09/25 05:57:59;;;;;;;8.27;5.28;;;;;;;;;;4962767;28;20388;-55
2021/09/25 06:00:24;;;;;;;9.43;5.43;;;;;;;;;;4957992;28;20050;-55
2021/09/25 06:02:49;;;;;;;14.30;5.28;;;;;;;;;;4957143;28;20023;-55
2021/09/25 06:05:14;;;;;;;11.65;5.45;;;;;;;;;;4951905;28;20089;-55
2021/09/25 06:07:39;;;;;;;9.60;4.82;;;;;;;;;;4954711;28;20042;-55
2021/09/25 06:10:05;;;;;;;9.23;5.70;;;;;;;;;;4960888;28;20034;-55
2021/09/25 06:12:30;;;;;;;11.27;5.50;;;;;;;;;;4957939;28;20042;-56
2021/09/25 06:14:55;;;;;;;14.13;5.43;;;;;;;;;;4964397;28;20434;-55
2021/09/25 06:17:21;;;;;;;20.50;4.47;;;;;;;;;;4963071;28;20040;-56
2021/09/25 06:19:46;;;;;;;9.60;4.07;;;;;;;;;;4966470;28;20106;-55
2021/09/25 06:22:11;;;;;;;62.35;4.65;;;;;;;;;;4957808;28;20141;-55
2021/09/25 06:24:37;;;;;;;29.45;4.45;;;;;;;;;;4963701;28;20059;-55
2021/09/25 06:27:02;;;;;;;24.70;3.72;;;;;;;;;;4961170;28;20042;-56
2021/09/25 06:29:27;;;;;;;9.38;3.42;;;;;;;;;;4961520;28;20114;-56
2021/09/25 06:31:52;;;;;;;5.07;3.30;;;;;;;;;;4954812;28;20031;-55
2021/09/25 06:34:18;;;;;;;11.95;3.40;;;;;;;;;;4958582;28;20035;-56
2021/09/25 06:36:43;;;;;;;4.97;3.30;;;;;;;;;;4979659;28;20033;-56
2021/09/25 06:39:08;;;;;;;6.10;3.35;;;;;;;;;;4970527;28;20611;-56
2021/09/25 06:41:33;;;;;;;5.70;2.88;;;;;;;;;;4960135;28;20063;-57
2021/09/25 06:43:59;;;;;;;7.45;3.00;;;;;;;;;;4962373;28;20121;-56
2021/09/25 06:46:24;;;;;;;3.88;2.80;;;;;;;;;;4962929;28;20032;-57
2021/09/25 06:48:49;;;;;;;6.10;3.00;;;;;;;;;;4966864;28;20388;-56
2021/09/25 06:51:16;;;;;;;4.10;2.90;;;;;;;;;;4955872;28;20424;-57
2021/09/25 06:53:42;;;;;;;5.65;2.97;;;;;;;;;;4962235;28;20061;-57
2021/09/25 06:56:07;;;;;;;5.80;3.40;;;;;;;;;;4962539;28;20085;-57
2021/09/25 06:58:32;;;;;;;4.95;3.33;;;;;;;;;;4965976;28;20539;-56
2021/09/25 07:00:58;;;;;;;5.13;3.65;;;;;;;;;;4960331;28;20630;-57
2021/09/25 07:03:23;;;;;;;5.72;3.65;;;;;;;;;;4967576;28;20162;-55
2021/09/25 07:05:48;;;;;;;5.95;4.20;;;;;;;;;;4957078;28;20039;-56
2021/09/25 07:08:13;;;;;;;6.97;4.38;;;;;;;;;;4959197;28;20015;-55
2021/09/25 07:10:39;;;;;;;7.93;4.75;;;;;;;;;;4960086;28;20057;-55
2021/09/25 07:13:04;;;;;;;7.53;5.32;;;;;;;;;;4964806;28;20461;-56
2021/09/25 07:15:30;;;;;;;10.30;6.30;;;;;;;;;;4952030;28;20503;-56
2021/09/25 07:17:55;;;;;;;12.30;6.78;;;;;;;;;;4970240;28;20014;-56
2021/09/25 07:20:20;;;;;;;13.13;6.95;;;;;;;;;;4953819;28;20397;-57
2021/09/25 07:22:50;;;;;;;10.48;6.55;;;;;;;;;;4963630;28;20054;-56
2021/09/25 07:25:15;;;;;;;;;;;;;;;;;;4955852;28;20201;-56
2021/09/25 07:27:41;;;;;;;36.22;7.07;;;;;;;;;;4962694;28;20545;-56
2021/09/25 07:30:06;;;;;;;10.95;6.25;;;;;;;;;;4956348;28;20294;-56
2021/09/25 07:32:32;;;;;;;11.05;6.93;;;;;;;;;;4959816;28;20034;-55
2021/09/25 07:34:57;;;;;;;9.65;6.28;;;;;;;;;;4963119;28;20030;-57
2021/09/25 07:37:22;;;;;;;9.95;6.38;;;;;;;;;;4950253;28;20038;-55
2021/09/25 07:39:47;;;;;;;13.68;6.70;;;;;;;;;;4957106;28;20027;-55
2021/09/25 07:42:12;;;;;;;16.80;6.93;;;;;;;;;;4949818;28;20045;-58
2021/09/25 07:44:38;;;;;;;9.20;6.20;;;;;;;;;;4949527;28;20019;-57
2021/09/25 07:47:03;;;;;;;10.93;5.90;;;;;;;;;;4963544;28;20125;-57
2021/09/25 07:49:29;;;;;;;11.18;6.50;;;;;;;;;;4957094;28;20159;-56
2021/09/25 07:51:54;;;;;;;12.25;6.18;;;;;;;;;;4967390;28;20042;-56
2021/09/25 07:54:19;;;;;;;11.60;5.70;;;;;;;;;;4953085;28;20023;-56
2021/09/25 07:56:44;;;;;;;9.75;6.20;;;;;;;;;;4971539;28;20075;-57
2021/09/25 07:59:09;;;;;;;8.98;5.72;;;;;;;;;;4957251;28;20023;-57
2021/09/25 08:01:35;;;;;;;9.40;6.00;;;;;;;;;;4953395;28;20041;-56
2021/09/25 08:04:00;;;;;;;9.65;6.15;;;;;;;;;;4959316;28;20037;-57
2021/09/25 08:06:25;;;;;;;11.23;5.65;;;;;;;;;;4958584;28;20039;-57
2021/09/25 08:08:50;;;;;;;9.90;6.20;;;;;;;;;;4967784;28;20031;-57
2021/09/25 08:11:16;;;;;;;12.88;6.35;;;;;;;;;;4958716;28;20366;-56
2021/09/25 08:13:41;;;;;;;11.43;6.43;;;;;;;;;;4961168;28;20394;-56
2021/09/25 08:16:06;;;;;;;9.52;6.20;;;;;;;;;;4958882;28;20035;-57
2021/09/25 08:18:31;;;;;;;9.70;6.22;;;;;;;;;;4967682;28;20136;-57
2021/09/25 08:20:57;;;;;;;9.45;6.53;;;;;;;;;;4949562;28;20094;-56
2021/09/25 08:23:22;;;;;;;10.30;6.57;;;;;;;;;;4957453;28;20058;-56
2021/09/25 08:25:47;;;;;;;12.13;6.90;;;;;;;;;;4945459;28;20039;-56
2021/09/25 08:28:12;;;;;;;14.48;7.35;;;;;;;;;;4959795;28;20592;-56
2021/09/25 08:30:38;;;;;;;11.75;7.40;;;;;;;;;;4953522;28;20462;-56
2021/09/25 08:33:03;;;;;;;10.90;7.53;;;;;;;;;;4951046;28;20030;-55
2021/09/25 08:35:29;;;;;;;12.13;7.95;;;;;;;;;;4954578;28;20043;-56
2021/09/25 08:37:54;;;;;;;11.93;7.82;;;;;;;;;;4950224;28;20402;-56
2021/09/25 08:40:21;;;;;;;14.30;7.60;;;;;;;;;;4949817;28;20094;-56
2021/09/25 08:42:47;;;;;;;14.70;8.10;;;;;;;;;;4950888;28;20496;-55
2021/09/25 08:45:12;;;;;;;12.68;8.00;;;;;;;;;;4948684;28;20023;-55
2021/09/25 08:47:37;;;;;;;18.63;8.65;;;;;;;;;;4954577;28;20102;-55
2021/09/25 08:50:03;;;;;;;13.20;8.80;;;;;;;;;;4948060;28;20032;-55
2021/09/25 08:52:28;;;;;;;13.63;8.80;;;;;;;;;;4948573;28;20417;-56
2021/09/25 08:54:54;;;;;;;13.52;8.52;;;;;;;;;;4948241;28;20086;-56
2021/09/25 08:57:19;;;;;;;14.35;8.50;;;;;;;;;;4952968;28;20436;-55
2021/09/25 08:59:47;;;;;;;19.08;9.85;;;;;;;;;;4960052;28;20178;-56
2021/09/25 09:02:13;;;;;;;17.98;10.30;;;;;;;;;;4956350;28;20047;-55
2021/09/25 09:04:39;;;;;;;15.50;9.27;;;;;;;;;;4959618;28;20030;-56
2021/09/25 09:07:11;;;;;;;13.60;8.60;;;;;;;;;;4952105;28;20036;-56
2021/09/25 09:09:40;;;;;;;16.67;8.70;;;;;;;;;;4952887;28;20029;-56
2021/09/25 09:12:05;;;;;;;13.88;8.38;;;;;;;;;;4954815;28;20031;-57
2021/09/25 09:14:31;;;;;;;14.25;7.57;;;;;;;;;;4953695;28;20035;-57
2021/09/25 09:16:56;;;;;;;11.95;7.53;;;;;;;;;;4950489;28;20066;-57
2021/09/25 09:19:22;;;;;;;12.77;8.00;;;;;;;;;;4953552;28;20033;-56
2021/09/25 09:21:47;;;;;;;11.05;7.75;;;;;;;;;;4952553;28;20045;-55
2021/09/25 09:24:14;;;;;;;13.93;7.68;;;;;;;;;;4950964;28;20118;-57
2021/09/25 09:26:41;;;;;;;11.43;7.88;;;;;;;;;;4952096;28;20051;-57
2021/09/25 09:29:07;;;;;;;19.33;9.05;;;;;;;;;;4952800;28;20347;-57
2021/09/25 09:31:33;;;;;;;11.18;6.85;;;;;;;;;;4956644;28;20074;-57
2021/09/25 09:33:59;;;;;;;15.52;6.35;;;;;;;;;;4953933;28;20505;-57
2021/09/25 09:36:24;;;;;;;11.50;7.45;;;;;;;;;;4952307;28;20049;-57
2021/09/25 09:38:55;;;;;;;13.25;8.70;;;;;;;;;;4955215;28;20454;-57
2021/09/25 09:41:21;;;;;;;16.00;7.72;;;;;;;;;;4952998;28;20473;-57
2021/09/25 09:43:46;;;;;;;10.20;7.50;;;;;;;;;;4952552;28;20023;-56
2021/09/25 09:46:12;;;;;;;11.80;6.80;;;;;;;;;;4952227;28;20293;-57
2021/09/25 09:48:37;;;;;;;12.85;7.15;;;;;;;;;;4957534;28;20023;-56
2021/09/25 09:51:02;;;;;;;13.65;8.13;;;;;;;;;;4958660;28;20051;-56
2021/09/25 09:53:30;;;;;;;12.73;7.30;;;;;;;;;;4952534;28;20031;-56
2021/09/25 09:56:14;;;;;;;15.55;7.30;;;;;;;;;;4950526;28;20042;-56
2021/09/25 09:58:39;;;;;;;15.45;6.32;;;;;;;;;;4953459;28;20043;-55
2021/09/25 10:01:06;;;;;;;10.43;6.28;;;;;;;;;;4952636;28;20502;-56
2021/09/25 10:03:31;;;;;;;15.43;6.30;;;;;;;;;;4952312;28;20065;-56
2021/09/25 10:05:56;;;;;;;12.55;6.63;;;;;;;;;;4955225;28;20074;-56
2021/09/25 10:08:21;;;;;;;11.43;6.88;;;;;;;;;;4967257;28;20069;-56
2021/09/25 10:10:46;;;;;;;11.18;6.82;;;;;;;;;;4952704;28;20035;-56
2021/09/25 10:13:13;;;;;;;11.75;7.10;;;;;;;;;;4951515;28;20035;-55
2021/09/25 10:15:38;;;;;;;10.02;6.40;;;;;;;;;;4958372;28;20039;-56
2021/09/25 10:18:04;;;;;;;11.70;6.25;;;;;;;;;;4952009;28;20082;-56
2021/09/25 10:20:29;;;;;;;10.52;6.45;;;;;;;;;;4951886;28;20031;-56
2021/09/25 10:22:54;;;;;;;10.85;7.22;;;;;;;;;;4957710;28;20038;-56
2021/09/25 10:25:19;;;;;;;16.83;7.88;;;;;;;;;;4959732;28;20046;-56
2021/09/25 10:27:45;;;;;;;11.63;7.18;;;;;;;;;;4953367;28;20433;-56
2021/09/25 10:30:10;;;;;;;12.00;6.70;;;;;;;;;;4951242;28;20043;-56
2021/09/25 10:32:42;;;;;;;12.40;6.55;;;;;;;;;;4951690;28;20026;-56
2021/09/25 10:35:17;;;;;;;10.65;6.25;;;;;;;;;;4951232;28;20099;-56
2021/09/25 10:37:45;;;;;;;11.48;6.95;;;;;;;;;;4958260;28;20027;-56
2021/09/25 10:40:20;;;;;;;11.98;8.05;;;;;;;;;;4965605;28;20311;-56
2021/09/25 10:42:49;;;;;;;13.20;7.13;;;;;;;;;;4951435;28;20023;-55
2021/09/25 10:45:25;;;;;;;12.68;7.00;;;;;;;;;;4951772;28;20206;-57
2021/09/25 10:48:09;;;;;;;11.93;6.75;;;;;;;;;;4958495;28;20023;-56
2021/09/25 10:50:34;;;;;;;14.43;6.88;;;;;;;;;;4954975;28;20038;-56
2021/09/25 10:53:06;;;;;;;12.93;6.70;;;;;;;;;;4952062;28;20058;-56
2021/09/25 10:55:31;;;;;;;10.52;5.95;;;;;;;;;;4951074;28;20042;-55
2021/09/25 10:58:15;;;;;;;8.80;5.47;;;;;;;;;;4951529;28;20027;-56
2021/09/25 11:00:53;;;;;;;10.13;5.22;;;;;;;;;;4952331;28;20485;-55
2021/09/25 11:03:37;;;;;;;9.27;5.07;;;;;;;;;;4964304;28;20456;-56
2021/09/25 11:06:03;;;;;;;8.95;5.53;;;;;;;;;;4950438;28;20035;-56
2021/09/25 11:08:32;;;;;;;9.30;5.90;;;;;;;;;;4951642;28;20018;-56
2021/09/25 11:11:06;;;;;;;15.75;5.65;;;;;;;;;;4948346;28;20051;-56
2021/09/25 11:13:50;;;;;;;9.25;5.97;;;;;;;;;;4958141;28;20031;-56
2021/09/25 11:16:15;;;;;;;10.70;5.75;;;;;;;;;;4953769;28;20058;-57
2021/09/25 11:18:50;;;;;;;17.10;6.03;;;;;;;;;;4951128;28;20019;-56
2021/09/25 11:21:15;;;;;;;7.90;4.78;;;;;;;;;;4946615;28;20079;-57
2021/09/25 11:23:49;;;;;;;9.05;5.13;;;;;;;;;;4951128;28;20067;-56
2021/09/25 11:26:15;;;;;;;7.95;4.35;;;;;;;;;;4948528;28;20592;-56
2021/09/25 11:28:43;;;;;;;12.93;4.85;;;;;;;;;;4947464;28;20027;-56
2021/09/25 11:31:09;;;;;;;10.25;5.03;;;;;;;;;;4950364;28;20046;-55
2021/09/25 11:33:38;;;;;;;10.57;5.13;;;;;;;;;;4949627;28;20492;-56
2021/09/25 11:36:09;;;;;;;11.15;4.68;;;;;;;;;;4948299;28;20122;-55
2021/09/25 11:38:44;;;;;;;10.93;4.72;;;;;;;;;;4948494;28;20055;-55
2021/09/25 11:41:13;;;;;;;10.60;4.38;;;;;;;;;;4953983;28;20473;-55
2021/09/25 11:43:38;;;;;;;8.73;4.13;;;;;;;;;;4952042;28;20022;-55
2021/09/25 11:46:05;;;;;;;8.15;4.07;;;;;;;;;;4950320;28;21777;-54
2021/09/25 11:48:32;;;;;;;7.28;4.28;;;;;;;;;;4948531;28;20057;-54
2021/09/25 11:50:57;;;;;;;15.05;4.25;;;;;;;;;;4949970;28;20047;-54
2021/09/25 11:53:23;;;;;;;8.02;3.95;;;;;;;;;;4950311;28;20034;-55
2021/09/25 11:55:49;;;;;;;7.10;4.03;;;;;;;;;;4951907;28;20041;-56
2021/09/25 11:58:15;;;;;;;5.57;3.45;;;;;;;;;;4954365;28;20114;-56
2021/09/25 12:00:48;;;;;;;5.40;3.42;;;;;;;;;;4960814;28;20050;-55
2021/09/25 12:03:14;;;;;;;6.03;4.00;;;;;;;;;;4953875;28;20042;-56
2021/09/25 12:05:43;;;;;;;7.40;3.60;;;;;;;;;;4955524;28;20397;-55
2021/09/25 12:08:09;;;;;;;6.75;3.58;;;;;;;;;;4959604;28;20027;-56
2021/09/25 12:10:38;;;;;;;6.82;3.60;;;;;;;;;;4947603;28;20058;-56
2021/09/25 12:13:07;;;;;;;6.55;3.72;;;;;;;;;;4956301;28;20030;-57
2021/09/25 12:15:33;;;;;;;6.18;3.75;;;;;;;;;;4957477;28;20065;-56
2021/09/25 12:18:14;;;;;;;8.77;3.80;;;;;;;;;;4954465;28;20047;-57
2021/09/25 12:20:40;;;;;;;5.88;3.50;;;;;;;;;;4954194;28;20035;-56
2021/09/25 12:23:06;;;;;;;8.05;3.97;;;;;;;;;;4950096;28;20050;-55
2021/09/25 12:25:35;;;;;;;6.65;3.30;;;;;;;;;;4948415;28;20035;-55
2021/09/25 12:28:00;;;;;;;7.53;3.57;;;;;;;;;;4952351;28;20023;-56
2021/09/25 12:30:26;;;;;;;4.63;3.30;;;;;;;;;;4948277;28;20378;-56
2021/09/25 12:33:00;;;;;;;8.52;3.45;;;;;;;;;;4953814;28;20031;-55
2021/09/25 12:35:25;;;;;;;7.70;3.40;;;;;;;;;;4952774;28;20069;-56
2021/09/25 12:37:51;;;;;;;4.93;3.42;;;;;;;;;;4954038;28;20051;-55
2021/09/25 12:40:16;;;;;;;6.63;3.35;;;;;;;;;;4954146;28;20541;-55
2021/09/25 12:42:41;;;;;;;5.05;3.25;;;;;;;;;;4960584;28;20023;-55
2021/09/25 12:45:09;;;;;;;6.72;3.30;;;;;;;;;;4952883;28;20449;-55
2021/09/25 12:47:35;;;;;;;5.55;3.40;;;;;;;;;;4964666;28;20027;-55
2021/09/25 12:50:19;;;;;;;6.78;3.50;;;;;;;;;;4960046;28;20452;-56
2021/09/25 12:52:44;;;;;;;6.57;3.67;;;;;;;;;;4958179;28;20069;-56
2021/09/25 12:55:10;;;;;;;9.00;3.78;;;;;;;;;;4956685;28;20030;-56
2021/09/25 12:57:35;;;;;;;6.80;3.40;;;;;;;;;;4960501;28;20031;-55
2021/09/25 13:00:01;;;;;;;8.15;3.05;;;;;;;;;;4953381;28;20066;-55
2021/09/25 13:02:27;;;;;;;4.85;2.80;;;;;;;;;;4960139;28;20047;-56
2021/09/25 13:05:00;;;;;;;7.10;3.20;;;;;;;;;;4954035;28;20027;-55
2021/09/25 13:07:25;;;;;;;5.20;3.10;;;;;;;;;;4954059;28;20035;-56
2021/09/25 13:09:51;;;;;;;6.10;3.00;;;;;;;;;;4960012;28;20457;-54
2021/09/25 13:12:17;;;;;;;7.35;3.10;;;;;;;;;;4957654;28;20051;-54
2021/09/25 13:14:43;;;;;;;4.50;2.88;;;;;;;;;;4956173;28;20117;-55
2021/09/25 13:17:09;;;;;;;9.95;3.35;;;;;;;;;;4959499;28;20089;-56
2021/09/25 13:19:34;;;;;;;5.70;2.85;;;;;;;;;;4959246;28;20024;-55
2021/09/25 13:22:02;;;;;;;8.05;3.08;;;;;;;;;;4950554;28;20581;-54
2021/09/25 13:24:27;;;;;;;5.63;2.90;;;;;;;;;;4956345;28;20058;-55
2021/09/25 13:26:52;;;;;;;5.65;2.55;;;;;;;;;;4951693;28;20115;-55
2021/09/25 13:29:18;;;;;;;4.45;2.65;;;;;;;;;;4964218;28;20047;-56
2021/09/25 13:31:43;;;;;;;6.75;2.75;;;;;;;;;;4954722;28;20082;-56
2021/09/25 13:34:08;;;;;;;9.60;3.03;;;;;;;;;;4952649;28;20035;-56
2021/09/25 13:36:34;;;;;;;6.93;3.00;;;;;;;;;;4952207;28;20043;-56
2021/09/25 13:38:59;;;;;;;5.78;2.88;;;;;;;;;;4952986;28;20693;-57
2021/09/25 13:41:26;;;;;;;5.47;2.78;;;;;;;;;;4952174;28;20035;-56
2021/09/25 13:43:51;;;;;;;6.45;3.05;;;;;;;;;;4965084;28;20508;-57
2021/09/25 13:46:16;;;;;;;5.45;2.58;;;;;;;;;;4954378;28;20600;-57
2021/09/25 13:48:42;;;;;;;4.68;2.70;;;;;;;;;;4955116;28;20055;-57
2021/09/25 13:51:07;;;;;;;5.13;2.78;;;;;;;;;;4950277;28;20097;-57
2021/09/25 13:53:32;;;;;;;5.57;2.95;;;;;;;;;;4949414;28;20562;-57
2021/09/25 13:55:57;;;;;;;5.07;2.45;;;;;;;;;;4962896;28;20110;-56
2021/09/25 13:58:23;;;;;;;5.63;2.55;;;;;;;;;;4952155;28;20051;-56
2021/09/25 14:00:48;;;;;;;4.72;2.63;;;;;;;;;;4959283;28;20123;-57
2021/09/25 14:03:13;;;;;;;5.95;2.40;;;;;;;;;;4951356;28;20038;-57
2021/09/25 14:05:41;;;;;;;3.80;2.65;;;;;;;;;;4955733;28;20093;-57
2021/09/25 14:08:09;;;;;;;4.60;2.55;;;;;;;;;;4950592;28;20018;-57
2021/09/25 14:10:35;;;;;;;8.98;2.78;;;;;;;;;;4953400;28;20458;-57
2021/09/25 14:13:00;;;;;;;4.78;2.72;;;;;;;;;;4956649;28;20110;-57
2021/09/25 14:15:26;;;;;;;4.20;2.50;;;;;;;;;;4951798;28;20035;-57
2021/09/25 14:17:51;;;;;;;4.25;2.25;;;;;;;;;;4952280;28;20027;-56
2021/09/25 14:20:16;;;;;;;6.63;3.33;;;;;;;;;;4952200;28;20074;-57
2021/09/25 14:22:41;;;;;;;5.40;3.22;;;;;;;;;;4960541;28;20095;-56
2021/09/25 14:25:07;;;;;;;3.67;2.42;;;;;;;;;;4952601;28;20023;-57
2021/09/25 14:27:32;;;;;;;4.50;2.40;;;;;;;;;;4953440;28;20444;-56
2021/09/25 14:29:57;;;;;;;4.10;2.30;;;;;;;;;;4952568;28;20102;-56
2021/09/25 14:32:22;;;;;;;3.88;2.40;;;;;;;;;;4950168;28;20133;-57